sensor_id;sensor_type;location;lat;lon;timestamp;P1;durP1;ratioP1;P2;durP2;ratioP2
70675;SDS011;59069;52.242;20.900;2024-02-04T00:01:24;7.23;;;1.30;;
70675;SDS011;59069;52.242;20.900;2024-02-04T00:03:49;9.03;;;1.40;;
70675;SDS011;59069;52.242;20.900;2024-02-04T00:06:15;9.37;;;2.33;;
70675;SDS011;59069;52.242;20.900;2024-02-04T00:08:40;11.63;;;1.40;;
70675;SDS011;59069;52.242;20.900;2024-02-04T00:11:05;8.30;;;1.40;;
70675;SDS011;59069;52.242;20.900;2024-02-04T00:13:33;6.45;;;1.20;;
70675;SDS011;59069;52.242;20.900;2024-02-04T00:15:59;9.43;;;1.90;;
70675;SDS011;59069;52.242;20.900;2024-02-04T00:18:24;8.23;;;1.40;;
70675;SDS011;59069;52.242;20.900;2024-02-04T00:20:50;7.77;;;1.93;;
70675;SDS011;59069;52.242;20.900;2024-02-04T00:23:15;9.30;;;1.73;;
70675;SDS011;59069;52.242;20.900;2024-02-04T00:25:41;7.15;;;1.27;;
70675;SDS011;59069;52.242;20.900;2024-02-04T00:28:06;10.73;;;1.77;;
70675;SDS011;59069;52.242;20.900;2024-02-04T00:30:32;8.60;;;1.83;;
70675;SDS011;59069;52.242;20.900;2024-02-04T00:32:57;9.03;;;1.43;;
70675;SDS011;59069;52.242;20.900;2024-02-04T00:35:27;10.23;;;1.55;;
70675;SDS011;59069;52.242;20.900;2024-02-04T00:37:53;11.03;;;1.43;;
70675;SDS011;59069;52.242;20.900;2024-02-04T00:40:19;10.73;;;1.83;;
70675;SDS011;59069;52.242;20.900;2024-02-04T00:42:44;8.97;;;1.50;;
70675;SDS011;59069;52.242;20.900;2024-02-04T00:45:10;7.20;;;1.63;;
70675;SDS011;59069;52.242;20.900;2024-02-04T00:47:35;8.38;;;1.42;;
70675;SDS011;59069;52.242;20.900;2024-02-04T00:50:01;8.03;;;1.30;;
70675;SDS011;59069;52.242;20.900;2024-02-04T00:52:26;8.77;;;1.98;;
70675;SDS011;59069;52.242;20.900;2024-02-04T00:54:52;8.17;;;2.03;;
70675;SDS011;59069;52.242;20.900;2024-02-04T00:57:17;7.47;;;1.40;;
70675;SDS011;59069;52.242;20.900;2024-02-04T00:59:42;12.67;;;1.83;;
70675;SDS011;59069;52.242;20.900;2024-02-04T01:02:08;10.70;;;1.80;;
70675;SDS011;59069;52.242;20.900;2024-02-04T01:04:33;10.07;;;1.63;;
70675;SDS011;59069;52.242;20.900;2024-02-04T01:06:58;7.57;;;1.67;;
70675;SDS011;59069;52.242;20.900;2024-02-04T01:09:24;7.90;;;1.83;;
70675;SDS011;59069;52.242;20.900;2024-02-04T01:11:49;9.03;;;1.30;;
70675;SDS011;59069;52.242;20.900;2024-02-04T01:14:15;8.87;;;1.23;;
70675;SDS011;59069;52.242;20.900;2024-02-04T01:16:40;9.67;;;1.80;;
70675;SDS011;59069;52.242;20.900;2024-02-04T01:19:05;9.10;;;1.40;;
70675;SDS011;59069;52.242;20.900;2024-02-04T01:21:31;10.03;;;1.80;;
70675;SDS011;59069;52.242;20.900;2024-02-04T01:23:56;10.63;;;1.83;;
70675;SDS011;59069;52.242;20.900;2024-02-04T01:26:21;9.07;;;1.47;;
70675;SDS011;59069;52.242;20.900;2024-02-04T01:28:49;9.32;;;1.75;;
70675;SDS011;59069;52.242;20.900;2024-02-04T01:31:14;11.13;;;1.40;;
70675;SDS011;59069;52.242;20.900;2024-02-04T01:33:40;8.97;;;1.47;;
70675;SDS011;59069;52.242;20.900;2024-02-04T01:36:05;10.60;;;1.40;;
70675;SDS011;59069;52.242;20.900;2024-02-04T01:38:31;8.68;;;1.52;;
70675;SDS011;59069;52.242;20.900;2024-02-04T01:40:56;9.57;;;2.13;;
70675;SDS011;59069;52.242;20.900;2024-02-04T01:43:22;10.43;;;1.52;;
70675;SDS011;59069;52.242;20.900;2024-02-04T01:45:48;9.80;;;1.83;;
70675;SDS011;59069;52.242;20.900;2024-02-04T01:48:16;10.35;;;1.88;;
70675;SDS011;59069;52.242;20.900;2024-02-04T01:50:42;7.60;;;1.80;;
70675;SDS011;59069;52.242;20.900;2024-02-04T01:53:08;7.50;;;1.58;;
70675;SDS011;59069;52.242;20.900;2024-02-04T01:55:34;8.65;;;1.60;;
70675;SDS011;59069;52.242;20.900;2024-02-04T01:58:00;11.17;;;2.10;;
70675;SDS011;59069;52.242;20.900;2024-02-04T02:00:26;9.88;;;1.60;;
70675;SDS011;59069;52.242;20.900;2024-02-04T02:02:52;12.17;;;2.37;;
70675;SDS011;59069;52.242;20.900;2024-02-04T02:05:19;10.48;;;2.08;;
70675;SDS011;59069;52.242;20.900;2024-02-04T02:07:44;10.83;;;2.00;;
70675;SDS011;59069;52.242;20.900;2024-02-04T02:10:12;10.70;;;1.90;;
70675;SDS011;59069;52.242;20.900;2024-02-04T02:12:43;10.82;;;1.70;;
70675;SDS011;59069;52.242;20.900;2024-02-04T02:15:16;11.20;;;2.05;;
70675;SDS011;59069;52.242;20.900;2024-02-04T02:17:54;11.45;;;1.88;;
70675;SDS011;59069;52.242;20.900;2024-02-04T02:20:27;8.50;;;1.60;;
70675;SDS011;59069;52.242;20.900;2024-02-04T02:23:07;9.45;;;1.33;;
70675;SDS011;59069;52.242;20.900;2024-02-04T02:25:36;12.35;;;1.65;;
70675;SDS011;59069;52.242;20.900;2024-02-04T02:28:02;7.70;;;1.30;;
70675;SDS011;59069;52.242;20.900;2024-02-04T02:30:28;10.97;;;2.20;;
70675;SDS011;59069;52.242;20.900;2024-02-04T02:32:53;8.13;;;1.83;;
70675;SDS011;59069;52.242;20.900;2024-02-04T02:35:19;8.25;;;1.83;;
70675;SDS011;59069;52.242;20.900;2024-02-04T02:37:53;8.32;;;1.50;;
70675;SDS011;59069;52.242;20.900;2024-02-04T02:40:33;8.77;;;1.85;;
70675;SDS011;59069;52.242;20.900;2024-02-04T02:43:04;13.83;;;2.00;;
70675;SDS011;59069;52.242;20.900;2024-02-04T02:45:31;8.10;;;1.65;;
70675;SDS011;59069;52.242;20.900;2024-02-04T02:47:57;9.20;;;1.90;;
70675;SDS011;59069;52.242;20.900;2024-02-04T02:50:23;8.38;;;1.50;;
70675;SDS011;59069;52.242;20.900;2024-02-04T02:52:48;7.17;;;1.40;;
70675;SDS011;59069;52.242;20.900;2024-02-04T02:55:14;10.57;;;1.50;;
70675;SDS011;59069;52.242;20.900;2024-02-04T02:57:39;7.83;;;1.27;;
70675;SDS011;59069;52.242;20.900;2024-02-04T03:00:05;9.32;;;1.50;;
70675;SDS011;59069;52.242;20.900;2024-02-04T03:02:31;7.67;;;1.70;;
70675;SDS011;59069;52.242;20.900;2024-02-04T03:04:57;10.38;;;1.55;;
70675;SDS011;59069;52.242;20.900;2024-02-04T03:07:22;9.90;;;1.57;;
70675;SDS011;59069;52.242;20.900;2024-02-04T03:09:48;10.32;;;1.50;;
70675;SDS011;59069;52.242;20.900;2024-02-04T03:12:13;10.63;;;1.73;;
70675;SDS011;59069;52.242;20.900;2024-02-04T03:14:38;9.77;;;1.53;;
70675;SDS011;59069;52.242;20.900;2024-02-04T03:17:04;7.50;;;1.17;;
70675;SDS011;59069;52.242;20.900;2024-02-04T03:19:29;8.20;;;1.60;;
70675;SDS011;59069;52.242;20.900;2024-02-04T03:21:55;7.03;;;1.40;;
70675;SDS011;59069;52.242;20.900;2024-02-04T03:24:20;8.17;;;1.47;;
70675;SDS011;59069;52.242;20.900;2024-02-04T03:26:45;6.13;;;1.30;;
70675;SDS011;59069;52.242;20.900;2024-02-04T03:29:11;7.00;;;1.20;;
70675;SDS011;59069;52.242;20.900;2024-02-04T03:31:36;7.80;;;1.52;;
70675;SDS011;59069;52.242;20.900;2024-02-04T03:34:02;12.97;;;1.70;;
70675;SDS011;59069;52.242;20.900;2024-02-04T03:36:27;8.53;;;1.30;;
70675;SDS011;59069;52.242;20.900;2024-02-04T03:38:52;12.17;;;1.60;;
70675;SDS011;59069;52.242;20.900;2024-02-04T03:41:18;7.63;;;0.93;;
70675;SDS011;59069;52.242;20.900;2024-02-04T03:43:43;10.83;;;1.57;;
70675;SDS011;59069;52.242;20.900;2024-02-04T03:46:18;8.03;;;1.20;;
70675;SDS011;59069;52.242;20.900;2024-02-04T03:48:43;8.65;;;1.10;;
70675;SDS011;59069;52.242;20.900;2024-02-04T03:51:14;11.63;;;1.20;;
70675;SDS011;59069;52.242;20.900;2024-02-04T03:53:43;7.68;;;1.27;;
70675;SDS011;59069;52.242;20.900;2024-02-04T03:56:09;7.35;;;1.02;;
70675;SDS011;59069;52.242;20.900;2024-02-04T03:58:34;9.37;;;1.20;;
70675;SDS011;59069;52.242;20.900;2024-02-04T04:00:59;9.17;;;1.80;;
70675;SDS011;59069;52.242;20.900;2024-02-04T04:03:25;9.87;;;1.00;;
70675;SDS011;59069;52.242;20.900;2024-02-04T04:05:52;7.45;;;1.10;;
70675;SDS011;59069;52.242;20.900;2024-02-04T04:08:18;7.07;;;1.13;;
70675;SDS011;59069;52.242;20.900;2024-02-04T04:10:43;7.27;;;1.50;;
70675;SDS011;59069;52.242;20.900;2024-02-04T04:13:09;12.45;;;1.00;;
70675;SDS011;59069;52.242;20.900;2024-02-04T04:15:34;10.47;;;1.20;;
70675;SDS011;59069;52.242;20.900;2024-02-04T04:18:00;10.17;;;1.57;;
70675;SDS011;59069;52.242;20.900;2024-02-04T04:20:25;7.13;;;1.63;;
70675;SDS011;59069;52.242;20.900;2024-02-04T04:22:50;7.70;;;1.00;;
70675;SDS011;59069;52.242;20.900;2024-02-04T04:25:16;8.07;;;1.40;;
70675;SDS011;59069;52.242;20.900;2024-02-04T04:27:42;8.07;;;1.27;;
70675;SDS011;59069;52.242;20.900;2024-02-04T04:30:08;6.20;;;1.20;;
70675;SDS011;59069;52.242;20.900;2024-02-04T04:32:34;7.72;;;1.00;;
70675;SDS011;59069;52.242;20.900;2024-02-04T04:35:00;6.28;;;0.70;;
70675;SDS011;59069;52.242;20.900;2024-02-04T04:37:25;6.20;;;0.80;;
70675;SDS011;59069;52.242;20.900;2024-02-04T04:39:51;4.60;;;0.73;;
70675;SDS011;59069;52.242;20.900;2024-02-04T04:42:16;4.10;;;0.60;;
70675;SDS011;59069;52.242;20.900;2024-02-04T04:44:42;5.13;;;0.53;;
70675;SDS011;59069;52.242;20.900;2024-02-04T04:47:07;6.97;;;0.80;;
70675;SDS011;59069;52.242;20.900;2024-02-04T04:49:32;5.10;;;0.77;;
70675;SDS011;59069;52.242;20.900;2024-02-04T04:51:58;8.10;;;1.13;;
70675;SDS011;59069;52.242;20.900;2024-02-04T04:54:23;8.60;;;1.10;;
70675;SDS011;59069;52.242;20.900;2024-02-04T04:56:49;10.45;;;1.10;;
70675;SDS011;59069;52.242;20.900;2024-02-04T04:59:17;7.87;;;1.10;;
70675;SDS011;59069;52.242;20.900;2024-02-04T05:01:46;6.78;;;0.80;;
70675;SDS011;59069;52.242;20.900;2024-02-04T05:04:12;5.43;;;1.47;;
70675;SDS011;59069;52.242;20.900;2024-02-04T05:06:37;6.47;;;0.85;;
70675;SDS011;59069;52.242;20.900;2024-02-04T05:09:03;7.17;;;1.20;;
70675;SDS011;59069;52.242;20.900;2024-02-04T05:11:28;8.43;;;1.10;;
70675;SDS011;59069;52.242;20.900;2024-02-04T05:13:54;7.23;;;1.23;;
70675;SDS011;59069;52.242;20.900;2024-02-04T05:16:19;7.30;;;0.90;;
70675;SDS011;59069;52.242;20.900;2024-02-04T05:18:45;6.23;;;1.30;;
70675;SDS011;59069;52.242;20.900;2024-02-04T05:21:10;6.73;;;1.30;;
70675;SDS011;59069;52.242;20.900;2024-02-04T05:23:36;9.60;;;1.30;;
70675;SDS011;59069;52.242;20.900;2024-02-04T05:26:05;6.67;;;0.83;;
70675;SDS011;59069;52.242;20.900;2024-02-04T05:28:31;7.75;;;0.95;;
70675;SDS011;59069;52.242;20.900;2024-02-04T05:30:56;8.18;;;0.98;;
70675;SDS011;59069;52.242;20.900;2024-02-04T05:33:22;5.17;;;0.97;;
70675;SDS011;59069;52.242;20.900;2024-02-04T05:35:47;7.07;;;1.20;;
70675;SDS011;59069;52.242;20.900;2024-02-04T05:38:12;5.37;;;1.00;;
70675;SDS011;59069;52.242;20.900;2024-02-04T05:40:38;7.28;;;0.93;;
70675;SDS011;59069;52.242;20.900;2024-02-04T05:43:03;8.77;;;1.10;;
70675;SDS011;59069;52.242;20.900;2024-02-04T05:45:32;9.55;;;1.42;;
70675;SDS011;59069;52.242;20.900;2024-02-04T05:47:57;6.93;;;1.30;;
70675;SDS011;59069;52.242;20.900;2024-02-04T05:50:23;8.30;;;1.20;;
70675;SDS011;59069;52.242;20.900;2024-02-04T05:52:48;7.73;;;1.60;;
70675;SDS011;59069;52.242;20.900;2024-02-04T05:55:14;7.88;;;0.90;;
70675;SDS011;59069;52.242;20.900;2024-02-04T05:57:39;8.07;;;1.30;;
70675;SDS011;59069;52.242;20.900;2024-02-04T06:00:05;8.40;;;1.48;;
70675;SDS011;59069;52.242;20.900;2024-02-04T06:02:32;10.27;;;1.20;;
70675;SDS011;59069;52.242;20.900;2024-02-04T06:04:58;10.98;;;1.83;;
70675;SDS011;59069;52.242;20.900;2024-02-04T06:07:23;9.70;;;1.13;;
70675;SDS011;59069;52.242;20.900;2024-02-04T06:09:48;9.97;;;1.37;;
70675;SDS011;59069;52.242;20.900;2024-02-04T06:12:14;14.23;;;1.20;;
70675;SDS011;59069;52.242;20.900;2024-02-04T06:14:39;8.87;;;1.30;;
70675;SDS011;59069;52.242;20.900;2024-02-04T06:17:06;7.78;;;1.67;;
70675;SDS011;59069;52.242;20.900;2024-02-04T06:19:33;7.00;;;0.95;;
70675;SDS011;59069;52.242;20.900;2024-02-04T06:22:00;9.90;;;1.30;;
70675;SDS011;59069;52.242;20.900;2024-02-04T06:24:25;7.23;;;1.27;;
70675;SDS011;59069;52.242;20.900;2024-02-04T06:26:51;8.97;;;1.40;;
70675;SDS011;59069;52.242;20.900;2024-02-04T06:29:16;12.63;;;1.30;;
70675;SDS011;59069;52.242;20.900;2024-02-04T06:31:44;10.93;;;1.13;;
70675;SDS011;59069;52.242;20.900;2024-02-04T06:34:10;9.60;;;1.58;;
70675;SDS011;59069;52.242;20.900;2024-02-04T06:36:35;10.17;;;1.40;;
70675;SDS011;59069;52.242;20.900;2024-02-04T06:39:01;7.97;;;1.58;;
70675;SDS011;59069;52.242;20.900;2024-02-04T06:41:26;8.67;;;1.30;;
70675;SDS011;59069;52.242;20.900;2024-02-04T06:43:52;9.77;;;1.20;;
70675;SDS011;59069;52.242;20.900;2024-02-04T06:46:26;8.70;;;1.07;;
70675;SDS011;59069;52.242;20.900;2024-02-04T06:48:52;9.43;;;1.70;;
70675;SDS011;59069;52.242;20.900;2024-02-04T06:51:18;7.80;;;1.10;;
70675;SDS011;59069;52.242;20.900;2024-02-04T06:53:43;9.57;;;1.10;;
70675;SDS011;59069;52.242;20.900;2024-02-04T06:56:09;8.93;;;1.00;;
70675;SDS011;59069;52.242;20.900;2024-02-04T06:58:37;6.77;;;1.27;;
70675;SDS011;59069;52.242;20.900;2024-02-04T07:01:02;9.25;;;1.40;;
70675;SDS011;59069;52.242;20.900;2024-02-04T07:03:28;6.30;;;1.33;;
70675;SDS011;59069;52.242;20.900;2024-02-04T07:05:54;9.40;;;1.40;;
70675;SDS011;59069;52.242;20.900;2024-02-04T07:08:19;11.07;;;1.40;;
70675;SDS011;59069;52.242;20.900;2024-02-04T07:10:45;7.65;;;0.93;;
70675;SDS011;59069;52.242;20.900;2024-02-04T07:13:10;9.10;;;1.40;;
70675;SDS011;59069;52.242;20.900;2024-02-04T07:15:37;16.85;;;1.90;;
70675;SDS011;59069;52.242;20.900;2024-02-04T07:18:03;8.47;;;1.57;;
70675;SDS011;59069;52.242;20.900;2024-02-04T07:20:28;9.90;;;1.57;;
70675;SDS011;59069;52.242;20.900;2024-02-04T07:22:53;9.38;;;1.10;;
70675;SDS011;59069;52.242;20.900;2024-02-04T07:25:19;12.40;;;1.70;;
70675;SDS011;59069;52.242;20.900;2024-02-04T07:27:45;9.75;;;1.48;;
70675;SDS011;59069;52.242;20.900;2024-02-04T07:30:10;12.93;;;1.40;;
70675;SDS011;59069;52.242;20.900;2024-02-04T07:32:36;9.50;;;1.27;;
70675;SDS011;59069;52.242;20.900;2024-02-04T07:35:02;10.13;;;1.52;;
70675;SDS011;59069;52.242;20.900;2024-02-04T07:37:28;7.07;;;1.30;;
70675;SDS011;59069;52.242;20.900;2024-02-04T07:39:53;10.52;;;1.27;;
70675;SDS011;59069;52.242;20.900;2024-02-04T07:42:19;13.53;;;1.53;;
70675;SDS011;59069;52.242;20.900;2024-02-04T07:44:44;11.30;;;1.60;;
70675;SDS011;59069;52.242;20.900;2024-02-04T07:47:09;7.43;;;1.10;;
70675;SDS011;59069;52.242;20.900;2024-02-04T07:49:35;13.60;;;1.30;;
70675;SDS011;59069;52.242;20.900;2024-02-04T07:52:00;10.07;;;1.33;;
70675;SDS011;59069;52.242;20.900;2024-02-04T07:54:26;14.57;;;1.30;;
70675;SDS011;59069;52.242;20.900;2024-02-04T07:56:51;10.13;;;1.67;;
70675;SDS011;59069;52.242;20.900;2024-02-04T07:59:16;9.70;;;1.38;;
70675;SDS011;59069;52.242;20.900;2024-02-04T08:01:42;9.27;;;1.57;;
70675;SDS011;59069;52.242;20.900;2024-02-04T08:04:07;10.53;;;2.10;;
70675;SDS011;59069;52.242;20.900;2024-02-04T08:06:36;11.40;;;1.52;;
70675;SDS011;59069;52.242;20.900;2024-02-04T08:09:02;9.50;;;1.58;;
70675;SDS011;59069;52.242;20.900;2024-02-04T08:11:28;8.27;;;1.30;;
70675;SDS011;59069;52.242;20.900;2024-02-04T08:13:53;13.20;;;1.70;;
70675;SDS011;59069;52.242;20.900;2024-02-04T08:16:19;9.57;;;1.80;;
70675;SDS011;59069;52.242;20.900;2024-02-04T08:18:45;9.30;;;1.50;;
70675;SDS011;59069;52.242;20.900;2024-02-04T08:21:11;9.10;;;1.37;;
70675;SDS011;59069;52.242;20.900;2024-02-04T08:23:36;12.23;;;1.33;;
70675;SDS011;59069;52.242;20.900;2024-02-04T08:26:02;8.48;;;1.60;;
70675;SDS011;59069;52.242;20.900;2024-02-04T08:28:28;12.00;;;1.93;;
70675;SDS011;59069;52.242;20.900;2024-02-04T08:30:54;8.48;;;1.33;;
70675;SDS011;59069;52.242;20.900;2024-02-04T08:33:20;10.75;;;1.65;;
70675;SDS011;59069;52.242;20.900;2024-02-04T08:35:45;8.20;;;1.40;;
70675;SDS011;59069;52.242;20.900;2024-02-04T08:38:10;9.70;;;1.43;;
70675;SDS011;59069;52.242;20.900;2024-02-04T08:40:36;7.63;;;1.37;;
70675;SDS011;59069;52.242;20.900;2024-02-04T08:43:01;12.10;;;2.00;;
70675;SDS011;59069;52.242;20.900;2024-02-04T08:45:27;8.70;;;1.40;;
70675;SDS011;59069;52.242;20.900;2024-02-04T08:47:52;11.20;;;1.40;;
70675;SDS011;59069;52.242;20.900;2024-02-04T08:50:17;8.87;;;1.40;;
70675;SDS011;59069;52.242;20.900;2024-02-04T08:52:43;11.93;;;1.87;;
70675;SDS011;59069;52.242;20.900;2024-02-04T08:55:08;8.90;;;1.37;;
70675;SDS011;59069;52.242;20.900;2024-02-04T08:57:34;10.43;;;1.67;;
70675;SDS011;59069;52.242;20.900;2024-02-04T08:59:59;11.27;;;1.93;;
70675;SDS011;59069;52.242;20.900;2024-02-04T09:02:25;10.40;;;1.80;;
70675;SDS011;59069;52.242;20.900;2024-02-04T09:04:50;12.20;;;1.40;;
70675;SDS011;59069;52.242;20.900;2024-02-04T09:07:15;12.48;;;1.73;;
70675;SDS011;59069;52.242;20.900;2024-02-04T09:09:41;10.47;;;1.40;;
70675;SDS011;59069;52.242;20.900;2024-02-04T09:12:07;8.47;;;1.40;;
70675;SDS011;59069;52.242;20.900;2024-02-04T09:14:34;13.00;;;1.23;;
70675;SDS011;59069;52.242;20.900;2024-02-04T09:17:02;10.27;;;1.70;;
70675;SDS011;59069;52.242;20.900;2024-02-04T09:19:29;7.93;;;1.58;;
70675;SDS011;59069;52.242;20.900;2024-02-04T09:21:56;10.77;;;1.60;;
70675;SDS011;59069;52.242;20.900;2024-02-04T09:24:21;9.60;;;1.63;;
70675;SDS011;59069;52.242;20.900;2024-02-04T09:26:46;9.83;;;1.60;;
70675;SDS011;59069;52.242;20.900;2024-02-04T09:29:12;10.93;;;1.93;;
70675;SDS011;59069;52.242;20.900;2024-02-04T09:31:37;10.55;;;1.48;;
70675;SDS011;59069;52.242;20.900;2024-02-04T09:34:02;8.10;;;1.50;;
70675;SDS011;59069;52.242;20.900;2024-02-04T09:36:28;11.48;;;2.17;;
70675;SDS011;59069;52.242;20.900;2024-02-04T09:38:54;9.93;;;1.53;;
70675;SDS011;59069;52.242;20.900;2024-02-04T09:41:20;8.82;;;1.55;;
70675;SDS011;59069;52.242;20.900;2024-02-04T09:43:48;9.68;;;1.30;;
70675;SDS011;59069;52.242;20.900;2024-02-04T09:46:15;10.83;;;2.20;;
70675;SDS011;59069;52.242;20.900;2024-02-04T09:48:41;9.30;;;1.40;;
70675;SDS011;59069;52.242;20.900;2024-02-04T09:51:09;9.30;;;2.05;;
70675;SDS011;59069;52.242;20.900;2024-02-04T09:53:35;13.77;;;2.57;;
70675;SDS011;59069;52.242;20.900;2024-02-04T09:56:01;9.85;;;2.45;;
70675;SDS011;59069;52.242;20.900;2024-02-04T09:58:27;10.57;;;1.98;;
70675;SDS011;59069;52.242;20.900;2024-02-04T10:00:53;9.67;;;2.10;;
70675;SDS011;59069;52.242;20.900;2024-02-04T10:03:19;10.75;;;1.55;;
70675;SDS011;59069;52.242;20.900;2024-02-04T10:05:45;9.68;;;1.60;;
70675;SDS011;59069;52.242;20.900;2024-02-04T10:08:11;13.10;;;2.20;;
70675;SDS011;59069;52.242;20.900;2024-02-04T10:10:38;10.20;;;1.70;;
70675;SDS011;59069;52.242;20.900;2024-02-04T10:13:07;11.97;;;1.50;;
70675;SDS011;59069;52.242;20.900;2024-02-04T10:15:33;9.07;;;1.48;;
70675;SDS011;59069;52.242;20.900;2024-02-04T10:17:58;9.27;;;2.07;;
70675;SDS011;59069;52.242;20.900;2024-02-04T10:20:24;9.73;;;1.40;;
70675;SDS011;59069;52.242;20.900;2024-02-04T10:22:49;10.77;;;1.80;;
70675;SDS011;59069;52.242;20.900;2024-02-04T10:25:14;12.70;;;1.60;;
70675;SDS011;59069;52.242;20.900;2024-02-04T10:27:41;8.43;;;1.80;;
70675;SDS011;59069;52.242;20.900;2024-02-04T10:30:07;9.33;;;1.60;;
70675;SDS011;59069;52.242;20.900;2024-02-04T10:32:33;14.43;;;1.75;;
70675;SDS011;59069;52.242;20.900;2024-02-04T10:34:59;8.38;;;1.58;;
70675;SDS011;59069;52.242;20.900;2024-02-04T10:37:26;14.45;;;2.10;;
70675;SDS011;59069;52.242;20.900;2024-02-04T10:39:52;11.50;;;2.20;;
70675;SDS011;59069;52.242;20.900;2024-02-04T10:42:17;11.23;;;1.77;;
70675;SDS011;59069;52.242;20.900;2024-02-04T10:44:49;9.27;;;1.90;;
70675;SDS011;59069;52.242;20.900;2024-02-04T10:47:18;9.82;;;1.40;;
70675;SDS011;59069;52.242;20.900;2024-02-04T11:00:09;8.98;;;2.03;;
70675;SDS011;59069;52.242;20.900;2024-02-04T11:02:36;12.02;;;1.73;;
70675;SDS011;59069;52.242;20.900;2024-02-04T11:05:03;10.05;;;1.80;;
70675;SDS011;59069;52.242;20.900;2024-02-04T11:07:31;9.87;;;1.90;;
70675;SDS011;59069;52.242;20.900;2024-02-04T11:09:58;11.00;;;1.70;;
70675;SDS011;59069;52.242;20.900;2024-02-04T11:12:23;13.20;;;1.90;;
70675;SDS011;59069;52.242;20.900;2024-02-04T11:14:51;8.93;;;1.83;;
70675;SDS011;59069;52.242;20.900;2024-02-04T11:25:52;10.88;;;1.70;;
70675;SDS011;59069;52.242;20.900;2024-02-04T11:28:20;13.63;;;1.67;;
70675;SDS011;59069;52.242;20.900;2024-02-04T11:30:47;8.38;;;1.83;;
70675;SDS011;59069;52.242;20.900;2024-02-04T11:33:17;15.17;;;2.30;;
70675;SDS011;59069;52.242;20.900;2024-02-04T11:35:44;7.70;;;1.52;;
70675;SDS011;59069;52.242;20.900;2024-02-04T11:38:09;13.83;;;1.90;;
70675;SDS011;59069;52.242;20.900;2024-02-04T11:40:36;9.90;;;1.70;;
70675;SDS011;59069;52.242;20.900;2024-02-04T11:45:38;7.97;;;1.70;;
70675;SDS011;59069;52.242;20.900;2024-02-04T11:48:06;16.05;;;2.47;;
70675;SDS011;59069;52.242;20.900;2024-02-04T11:50:32;12.03;;;2.00;;
70675;SDS011;59069;52.242;20.900;2024-02-04T11:53:11;9.23;;;1.40;;
70675;SDS011;59069;52.242;20.900;2024-02-04T11:55:40;10.23;;;1.95;;
70675;SDS011;59069;52.242;20.900;2024-02-04T11:58:06;9.13;;;1.80;;
70675;SDS011;59069;52.242;20.900;2024-02-04T12:00:36;14.50;;;2.30;;
70675;SDS011;59069;52.242;20.900;2024-02-04T12:03:01;8.90;;;1.92;;
70675;SDS011;59069;52.242;20.900;2024-02-04T12:05:31;12.77;;;1.90;;
70675;SDS011;59069;52.242;20.900;2024-02-04T12:08:07;9.80;;;1.80;;
70675;SDS011;59069;52.242;20.900;2024-02-04T12:10:36;7.53;;;1.95;;
70675;SDS011;59069;52.242;20.900;2024-02-04T12:13:02;10.63;;;2.37;;
70675;SDS011;59069;52.242;20.900;2024-02-04T12:15:28;14.63;;;2.17;;
70675;SDS011;59069;52.242;20.900;2024-02-04T12:17:55;13.50;;;2.30;;
70675;SDS011;59069;52.242;20.900;2024-02-04T12:20:20;8.00;;;2.00;;
70675;SDS011;59069;52.242;20.900;2024-02-04T12:22:46;9.33;;;2.30;;
70675;SDS011;59069;52.242;20.900;2024-02-04T12:25:11;10.77;;;2.60;;
70675;SDS011;59069;52.242;20.900;2024-02-04T12:27:37;16.53;;;2.80;;
70675;SDS011;59069;52.242;20.900;2024-02-04T12:30:03;11.00;;;2.53;;
70675;SDS011;59069;52.242;20.900;2024-02-04T12:32:30;12.18;;;2.53;;
70675;SDS011;59069;52.242;20.900;2024-02-04T12:34:56;11.97;;;2.27;;
70675;SDS011;59069;52.242;20.900;2024-02-04T12:37:21;10.50;;;2.20;;
70675;SDS011;59069;52.242;20.900;2024-02-04T12:39:47;9.67;;;2.30;;
70675;SDS011;59069;52.242;20.900;2024-02-04T12:42:16;10.93;;;2.70;;
70675;SDS011;59069;52.242;20.900;2024-02-04T12:44:44;11.77;;;2.30;;
70675;SDS011;59069;52.242;20.900;2024-02-04T12:47:11;10.93;;;2.30;;
70675;SDS011;59069;52.242;20.900;2024-02-04T12:49:36;11.37;;;2.67;;
70675;SDS011;59069;52.242;20.900;2024-02-04T12:52:05;11.52;;;2.85;;
70675;SDS011;59069;52.242;20.900;2024-02-04T12:54:39;12.33;;;2.80;;
70675;SDS011;59069;52.242;20.900;2024-02-04T12:57:06;9.57;;;2.13;;
70675;SDS011;59069;52.242;20.900;2024-02-04T12:59:33;12.47;;;2.90;;
70675;SDS011;59069;52.242;20.900;2024-02-04T13:02:02;9.02;;;2.60;;
70675;SDS011;59069;52.242;20.900;2024-02-04T13:04:36;10.32;;;2.50;;
70675;SDS011;59069;52.242;20.900;2024-02-04T13:07:06;9.38;;;2.20;;
70675;SDS011;59069;52.242;20.900;2024-02-04T13:09:36;12.38;;;2.53;;
70675;SDS011;59069;52.242;20.900;2024-02-04T13:12:05;13.03;;;2.47;;
70675;SDS011;59069;52.242;20.900;2024-02-04T13:14:38;12.32;;;2.83;;
70675;SDS011;59069;52.242;20.900;2024-02-04T13:17:04;8.80;;;2.53;;
70675;SDS011;59069;52.242;20.900;2024-02-04T13:19:36;12.45;;;2.78;;
70675;SDS011;59069;52.242;20.900;2024-02-04T13:22:04;10.20;;;2.13;;
70675;SDS011;59069;52.242;20.900;2024-02-04T13:24:31;9.15;;;2.33;;
70675;SDS011;59069;52.242;20.900;2024-02-04T13:26:57;7.22;;;2.03;;
70675;SDS011;59069;52.242;20.900;2024-02-04T13:29:23;9.57;;;2.07;;
70675;SDS011;59069;52.242;20.900;2024-02-04T13:31:49;11.27;;;2.55;;
70675;SDS011;59069;52.242;20.900;2024-02-04T13:34:14;8.40;;;2.00;;
70675;SDS011;59069;52.242;20.900;2024-02-04T13:36:41;11.15;;;2.63;;
70675;SDS011;59069;52.242;20.900;2024-02-04T13:39:06;10.70;;;2.30;;
70675;SDS011;59069;52.242;20.900;2024-02-04T13:41:32;8.60;;;1.97;;
70675;SDS011;59069;52.242;20.900;2024-02-04T13:43:57;10.77;;;2.57;;
70675;SDS011;59069;52.242;20.900;2024-02-04T13:46:23;9.35;;;2.35;;
70675;SDS011;59069;52.242;20.900;2024-02-04T13:48:49;8.48;;;2.00;;
70675;SDS011;59069;52.242;20.900;2024-02-04T13:51:14;10.07;;;1.80;;
70675;SDS011;59069;52.242;20.900;2024-02-04T13:53:40;8.90;;;1.97;;
70675;SDS011;59069;52.242;20.900;2024-02-04T13:56:05;6.87;;;1.70;;
70675;SDS011;59069;52.242;20.900;2024-02-04T13:58:31;11.48;;;2.13;;
70675;SDS011;59069;52.242;20.900;2024-02-04T14:00:56;6.50;;;1.50;;
70675;SDS011;59069;52.242;20.900;2024-02-04T14:03:22;11.30;;;2.15;;
70675;SDS011;59069;52.242;20.900;2024-02-04T14:05:47;9.07;;;2.10;;
70675;SDS011;59069;52.242;20.900;2024-02-04T14:08:13;10.57;;;1.53;;
70675;SDS011;59069;52.242;20.900;2024-02-04T14:10:39;9.13;;;1.70;;
70675;SDS011;59069;52.242;20.900;2024-02-04T14:13:05;8.60;;;1.88;;
70675;SDS011;59069;52.242;20.900;2024-02-04T14:15:30;8.77;;;2.10;;
70675;SDS011;59069;52.242;20.900;2024-02-04T14:17:56;9.18;;;2.00;;
70675;SDS011;59069;52.242;20.900;2024-02-04T14:20:22;10.10;;;1.92;;
70675;SDS011;59069;52.242;20.900;2024-02-04T14:22:47;10.50;;;1.83;;
70675;SDS011;59069;52.242;20.900;2024-02-04T14:25:13;8.93;;;1.60;;
70675;SDS011;59069;52.242;20.900;2024-02-04T14:27:38;8.00;;;1.73;;
70675;SDS011;59069;52.242;20.900;2024-02-04T14:30:04;11.18;;;2.20;;
70675;SDS011;59069;52.242;20.900;2024-02-04T14:32:31;9.23;;;1.95;;
70675;SDS011;59069;52.242;20.900;2024-02-04T14:34:57;9.67;;;2.03;;
70675;SDS011;59069;52.242;20.900;2024-02-04T14:37:23;7.72;;;1.95;;
70675;SDS011;59069;52.242;20.900;2024-02-04T14:39:48;8.37;;;2.37;;
70675;SDS011;59069;52.242;20.900;2024-02-04T14:42:14;8.57;;;1.80;;
70675;SDS011;59069;52.242;20.900;2024-02-04T14:44:40;9.10;;;2.10;;